Time;durP1;ratioP1;P1;durP2;ratioP2;P2;SDS_P1;SDS_P2;PMS_P1;PMS_P2;Temp;Humidity;BMP_temperature;BMP_pressure;BME280_temperature;BME280_humidity;BME280_pressure;Samples;Min_cycle;Max_cycle;Signal;HPM_P1;HPM_P2
2022/02/20 00:01:51;;;;;;;7.60;4.20;;;;;;;4.90;51.24;97566.11;109887;1250;71546;-65
2022/02/20 00:04:21;;;;;;;6.50;4.40;;;;;;;4.92;50.30;97569.97;109791;1250;68847;-66
2022/02/20 00:06:50;;;;;;;7.00;3.70;;;;;;;4.94;49.67;97574.37;109701;1250;68511;-67
2022/02/20 00:09:20;;;;;;;7.90;4.20;;;;;;;4.94;48.70;97578.67;109851;1250;60119;-64
2022/02/20 00:11:50;;;;;;;6.90;3.70;;;;;;;4.91;46.88;97582.64;109781;1250;59701;-64
2022/02/20 00:14:19;;;;;;;5.00;3.30;;;;;;;4.91;47.19;97579.17;109568;1251;71539;-65
2022/02/20 00:16:49;;;;;;;5.80;3.70;;;;;;;4.91;48.42;97581.42;109747;1251;67939;-65
2022/02/20 00:19:20;;;;;;;4.60;3.20;;;;;;;4.92;48.60;97587.61;109804;1249;69450;-64
2022/02/20 00:21:49;;;;;;;5.30;3.10;;;;;;;4.91;48.53;97587.13;109700;1250;59682;-64
2022/02/20 00:24:20;;;;;;;4.10;2.70;;;;;;;4.92;48.27;97586.75;109844;1250;59672;-65
2022/02/20 00:26:49;;;;;;;6.00;3.50;;;;;;;4.92;48.04;97584.50;109857;1249;70653;-64
2022/02/20 00:29:20;;;;;;;7.30;3.60;;;;;;;4.90;46.88;97586.29;109714;1251;67776;-65
2022/02/20 00:31:50;;;;;;;6.30;3.90;;;;;;;4.90;47.32;97586.67;109800;1249;68572;-65
2022/02/20 00:34:20;;;;;;;7.90;4.80;;;;;;;4.87;46.98;97585.79;109887;1250;59772;-64
2022/02/20 00:36:49;;;;;;;8.10;5.00;;;;;;;4.85;47.20;97582.23;109762;1251;59678;-66
2022/02/20 00:39:28;;;;;;;8.10;5.90;;;;;;;4.79;48.88;97587.67;109761;1249;70777;-66
2022/02/20 00:42:00;;;;;;;9.80;6.20;;;;;;;4.68;49.68;97589.24;109749;1250;68411;-63
2022/02/20 00:44:31;;;;;;;8.40;5.00;;;;;;;4.58;49.87;97590.23;109836;1250;68610;-64
2022/02/20 00:47:01;;;;;;;10.10;5.60;;;;;;;4.58;50.03;97598.84;109702;1250;59737;-64
2022/02/20 00:49:32;;;;;;;8.20;5.90;;;;;;;4.57;50.25;97597.48;109750;1251;59892;-64
2022/02/20 00:52:02;;;;;;;7.10;4.90;;;;;;;4.59;50.34;97599.49;109861;1250;72119;-65
2022/02/20 00:54:31;;;;;;;7.30;5.30;;;;;;;4.58;50.46;97598.13;109812;1250;68684;-66
2022/02/20 00:57:01;;;;;;;;;;;;;;;4.59;50.66;97593.43;109764;1250;68535;-64
2022/02/20 00:59:30;;;;;;;8.20;5.60;;;;;;;4.59;51.13;97589.29;109808;1250;59689;-63
2022/02/20 01:02:00;;;;;;;8.10;4.80;;;;;;;4.58;51.32;97588.50;109779;1250;59675;-64
2022/02/20 01:04:30;;;;;;;10.80;7.10;;;;;;;4.56;51.53;97591.69;109763;1249;71576;-65
2022/02/20 01:06:59;;;;;;;9.70;5.80;;;;;;;4.50;52.12;97590.05;109817;1250;68410;-65
2022/02/20 01:09:32;;;;;;;9.50;6.30;;;;;;;4.49;51.93;97591.66;109770;1250;69414;-65
2022/02/20 01:12:01;;;;;;;9.80;6.50;;;;;;;4.46;52.31;97597.69;109746;1250;59699;-64
2022/02/20 01:14:32;;;;;;;14.00;8.00;;;;;;;4.39;52.72;97594.71;109905;1250;59788;-63
2022/02/20 01:17:03;;;;;;;14.50;9.50;;;;;;;4.34;53.15;97591.64;109635;1250;70592;-65
2022/02/20 01:19:33;;;;;;;14.20;8.90;;;;;;;4.28;53.51;97587.95;109854;1250;66643;-63
2022/02/20 01:22:02;;;;;;;16.10;10.70;;;;;;;4.29;53.47;97585.66;109802;1250;69257;-64
2022/02/20 01:24:33;;;;;;;13.20;9.40;;;;;;;4.26;53.69;97584.74;109808;1250;59686;-63
2022/02/20 01:27:03;;;;;;;12.30;7.60;;;;;;;4.19;54.35;97588.69;109532;1250;59732;-66
2022/02/20 01:29:33;;;;;;;11.30;7.60;;;;;;;4.14;54.29;97585.11;109792;1250;71438;-64
2022/02/20 01:32:04;;;;;;;12.10;7.80;;;;;;;4.11;54.29;97578.18;109837;1250;67726;-63
2022/02/20 01:34:34;;;;;;;13.50;9.50;;;;;;;4.09;54.29;97579.28;109578;1250;68465;-64
2022/02/20 01:37:04;;;;;;;13.00;8.70;;;;;;;4.06;54.63;97578.24;109714;1250;59752;-63
2022/02/20 01:39:34;;;;;;;12.70;8.40;;;;;;;4.02;54.59;97575.29;109649;1252;59754;-65
2022/02/20 01:42:09;;;;;;;8.50;6.10;;;;;;;3.98;55.06;97572.89;109567;1253;70730;-64
2022/02/20 01:44:39;;;;;;;9.90;6.40;;;;;;;3.97;54.45;97572.94;109776;1249;68136;-63
2022/02/20 01:47:13;;;;;;;7.90;5.40;;;;;;;3.93;55.23;97569.64;109718;1251;68603;-64
2022/02/20 01:49:44;;;;;;;9.50;6.70;;;;;;;3.93;55.30;97572.41;109699;1251;59723;-63
2022/02/20 01:52:14;;;;;;;7.40;5.90;;;;;;;3.89;56.35;97570.91;109612;1250;59668;-64
2022/02/20 01:54:45;;;;;;;11.50;7.10;;;;;;;3.88;56.46;97574.56;109700;1250;71538;-65
2022/02/20 01:57:15;;;;;;;8.60;5.00;;;;;;;3.86;56.65;97573.23;109796;1250;68495;-65
2022/02/20 01:59:49;;;;;;;7.80;4.80;;;;;;;3.89;55.99;97576.38;110024;1250;68610;-66
2022/02/20 02:02:48;;;;;;;7.00;4.20;;;;;;;3.87;56.91;97576.14;109850;1250;59803;-64
2022/02/20 02:05:51;;;;;;;9.70;6.40;;;;;;;3.78;57.70;97571.85;109899;1250;59703;-63
2022/02/20 02:08:22;;;;;;;11.40;7.90;;;;;;;3.78;57.07;97575.30;109686;1250;70254;-63
2022/02/20 02:11:22;;;;;;;8.70;5.50;;;;;;;3.74;56.85;97566.32;109680;1250;68117;-62
2022/02/20 02:14:02;;;;;;;8.50;6.00;;;;;;;3.75;56.33;97565.28;109787;1251;68625;-62
2022/02/20 02:17:11;;;;;;;10.30;7.70;;;;;;;3.75;56.26;97562.50;109418;1254;60197;-61
2022/02/20 02:19:50;;;;;;;13.60;9.90;;;;;;;3.79;56.32;97558.55;109365;1256;59697;-64
2022/02/20 02:22:27;;;;;;;13.40;8.70;;;;;;;3.79;56.17;97557.35;109477;1251;70746;-65
2022/02/20 02:25:09;;;;;;;15.90;9.70;;;;;;;3.77;56.20;97555.19;109766;1250;67891;-61
2022/02/20 02:28:06;;;;;;;15.90;9.20;;;;;;;3.68;57.25;97552.12;109690;1250;69334;-62
2022/02/20 02:30:47;;;;;;;8.90;5.90;;;;;;;3.61;56.97;97554.31;110079;1250;59768;-64
2022/02/20 02:33:33;;;;;;;7.50;5.60;;;;;;;3.55;57.02;97556.63;109711;1250;59737;-65
2022/02/20 02:36:08;;;;;;;6.00;4.50;;;;;;;3.51;56.89;97553.36;109880;1250;70943;-62
2022/02/20 02:38:37;;;;;;;5.90;4.60;;;;;;;3.48;56.97;97557.13;109913;1250;67638;-65
2022/02/20 02:41:09;;;;;;;;;;;;;;;3.44;57.00;97557.26;109752;1251;67664;-64
2022/02/20 02:43:40;;;;;;;8.70;5.80;;;;;;;3.42;57.11;97554.95;109326;1250;734810;-64
2022/02/20 02:46:10;;;;;;;7.20;5.40;;;;;;;3.39;57.88;97558.70;109823;1250;59750;-65
2022/02/20 02:48:48;;;;;;;6.50;4.60;;;;;;;3.35;58.13;97562.30;109765;1250;71528;-66
2022/02/20 02:51:21;;;;;;;9.10;5.50;;;;;;;3.33;58.35;97562.56;109991;1250;67627;-62
2022/02/20 02:53:56;;;;;;;12.40;6.30;;;;;;;3.30;59.92;97561.66;109861;1250;69299;-64
2022/02/20 02:56:26;;;;;;;10.70;6.70;;;;;;;3.31;59.29;97558.48;109943;1250;59745;-66
2022/02/20 02:58:57;;;;;;;9.40;6.10;;;;;;;3.34;58.83;97555.44;109908;1250;59693;-62
2022/02/20 03:01:27;;;;;;;;;;;;;;;3.30;59.20;97548.02;109790;1250;70823;-62
2022/02/20 03:03:58;;;;;;;13.20;8.40;;;;;;;3.25;59.59;97549.11;109682;1251;67842;-62
2022/02/20 03:06:28;;;;;;;15.20;9.40;;;;;;;3.11;60.46;97553.80;109611;1253;67695;-64
2022/02/20 03:09:09;;;;;;;8.70;5.90;;;;;;;2.93;61.81;97556.09;109801;1250;59698;-63
2022/02/20 03:11:40;;;;;;;14.80;7.50;;;;;;;2.92;61.88;97557.34;109776;1249;59756;-64
2022/02/20 03:14:15;;;;;;;9.80;6.70;;;;;;;2.89;62.17;97557.11;109814;1250;70759;-64
2022/02/20 03:16:46;;;;;;;10.70;7.20;;;;;;;2.88;62.27;97556.27;110001;1250;67902;-63
2022/02/20 03:19:16;;;;;;;15.40;7.90;;;;;;;2.86;62.53;97555.51;109778;1251;69293;-62
2022/02/20 03:21:46;;;;;;;12.30;9.00;;;;;;;2.83;62.78;97554.42;109760;1251;59723;-65
2022/02/20 03:24:20;;;;;;;11.10;7.10;;;;;;;2.81;63.00;97557.95;109879;1250;59656;-65
2022/02/20 03:26:51;;;;;;;10.80;7.10;;;;;;;2.82;63.10;97554.11;109810;1250;69728;-63
2022/02/20 03:29:27;;;;;;;9.10;5.70;;;;;;;2.83;63.17;97554.26;109845;1250;68592;-61
2022/02/20 03:31:57;;;;;;;;;;;;;;;2.85;63.02;97554.67;109654;1250;67711;-64
2022/02/20 03:34:27;;;;;;;7.60;4.20;;;;;;;2.84;63.33;97553.34;109743;1250;59741;-63
2022/02/20 03:37:00;;;;;;;5.80;3.80;;;;;;;2.85;63.39;97551.58;109806;1250;60111;-63
2022/02/20 03:39:37;;;;;;;5.90;3.20;;;;;;;2.85;63.50;97550.88;109943;1250;70979;-63
2022/02/20 03:42:10;;;;;;;5.70;3.50;;;;;;;2.88;63.52;97549.55;109563;1250;68634;-62
2022/02/20 03:45:16;;;;;;;7.00;3.60;;;;;;;2.90;63.34;97542.60;109516;1253;68640;-63
2022/02/20 03:47:51;;;;;;;9.70;6.50;;;;;;;2.90;62.96;97539.51;109703;1250;59757;-65
2022/02/20 03:50:21;;;;;;;8.10;4.70;;;;;;;2.88;63.29;97545.11;109758;1250;59780;-63
2022/02/20 03:52:55;;;;;;;10.60;5.00;;;;;;;2.84;63.61;97543.88;109807;1250;72251;-63
2022/02/20 03:55:27;;;;;;;7.20;5.00;;;;;;;2.80;63.93;97544.71;109655;1252;68686;-63
2022/02/20 03:57:58;;;;;;;8.10;4.20;;;;;;;2.76;64.53;97543.66;109599;1251;68871;-61
2022/02/20 04:00:47;;;;;;;7.40;4.40;;;;;;;2.76;64.60;97542.64;109584;1250;59683;-64
2022/02/20 04:03:43;;;;;;;5.00;3.20;;;;;;;2.78;64.34;97541.70;109658;1253;59691;-65
2022/02/20 04:06:13;;;;;;;6.40;3.80;;;;;;;2.81;64.30;97541.59;109723;1251;71572;-65
2022/02/20 04:08:47;;;;;;;7.50;4.40;;;;;;;2.82;64.83;97541.21;109864;1250;68062;-63
2022/02/20 04:11:17;;;;;;;6.70;4.80;;;;;;;2.80;64.65;97536.45;109697;1249;69937;-64
2022/02/20 04:14:10;;;;;;;8.40;5.00;;;;;;;2.74;65.08;97532.20;109727;1250;59777;-64
2022/02/20 04:16:56;;;;;;;10.00;5.60;;;;;;;2.70;65.29;97530.16;109768;1250;59724;-63
2022/02/20 04:19:26;;;;;;;7.40;5.30;;;;;;;2.64;65.51;97529.89;109699;1250;70585;-66
2022/02/20 04:21:57;;;;;;;6.70;4.60;;;;;;;2.59;65.83;97527.65;109683;1251;67675;-65
2022/02/20 04:24:27;;;;;;;6.10;3.60;;;;;;;2.56;65.40;97524.84;109716;1250;68501;-64
2022/02/20 04:26:58;;;;;;;7.60;4.60;;;;;;;2.59;64.44;97524.03;109801;1250;59793;-63
2022/02/20 04:29:46;;;;;;;6.30;3.90;;;;;;;2.61;64.58;97518.14;109730;1251;59678;-63
2022/02/20 04:32:16;;;;;;;;;;;;;;;2.59;64.44;97512.16;109781;1250;70690;-61
2022/02/20 04:34:47;;;;;;;7.60;4.10;;;;;;;2.56;65.25;97511.58;109715;1250;68646;-64
2022/02/20 04:37:17;;;;;;;8.60;5.40;;;;;;;2.53;66.06;97502.25;109710;1250;69405;-65
2022/02/20 04:39:48;;;;;;;7.40;4.80;;;;;;;2.49;65.83;97499.30;109723;1250;59687;-64
2022/02/20 04:42:18;;;;;;;5.50;3.80;;;;;;;2.44;65.63;97495.55;109778;1250;59741;-63
2022/02/20 04:45:08;;;;;;;4.50;3.60;;;;;;;2.39;64.56;97491.80;109652;1251;72275;-64
2022/02/20 04:47:42;;;;;;;5.60;4.00;;;;;;;2.35;64.61;97493.31;109661;1251;68051;-66
2022/02/20 04:50:15;;;;;;;7.80;4.80;;;;;;;2.33;64.62;97490.48;109839;1250;69260;-63
2022/02/20 04:52:55;;;;;;;;;;;;;;;2.34;64.63;97488.86;109736;1251;59741;-64
2022/02/20 04:55:31;;;;;;;10.00;6.40;;;;;;;2.30;64.92;97491.62;109937;1250;59726;-63
2022/02/20 04:58:01;;;;;;;13.70;7.10;;;;;;;2.25;65.04;97488.04;109756;1250;71351;-63
2022/02/20 05:00:31;;;;;;;8.90;6.00;;;;;;;2.19;65.15;97488.59;109755;1251;68584;-66
2022/02/20 05:03:01;;;;;;;13.70;8.40;;;;;;;2.13;65.45;97486.75;109554;1253;68840;-65
2022/02/20 05:05:49;;;;;;;12.60;7.60;;;;;;;2.02;66.26;97481.86;109870;1250;59704;-63
2022/02/20 05:08:26;;;;;;;10.50;7.30;;;;;;;1.89;66.93;97485.08;109695;1252;59694;-64
2022/02/20 05:10:57;;;;;;;10.00;7.30;;;;;;;1.82;66.15;97486.73;109732;1250;71510;-63
2022/02/20 05:13:28;;;;;;;9.10;6.90;;;;;;;1.73;66.36;97483.42;109671;1251;68582;-63
2022/02/20 05:15:59;;;;;;;9.00;5.60;;;;;;;1.66;68.41;97482.84;109645;1251;68750;-66
2022/02/20 05:18:29;;;;;;;8.60;6.40;;;;;;;1.61;67.32;97486.27;109635;1251;59737;-65
2022/02/20 05:20:59;;;;;;;5.90;4.50;;;;;;;1.57;67.57;97488.66;109570;1251;59745;-62
2022/02/20 05:23:30;;;;;;;9.50;5.80;;;;;;;1.53;67.49;97490.66;109568;1251;70940;-63
2022/02/20 05:26:01;;;;;;;9.30;5.10;;;;;;;1.50;68.20;97493.19;109656;1251;68095;-64
2022/02/20 05:28:31;;;;;;;7.50;4.80;;;;;;;1.47;68.70;97492.77;109627;1251;68677;-65
2022/02/20 05:31:05;;;;;;;4.30;3.20;;;;;;;1.44;69.03;97488.93;109817;1251;59751;-63
2022/02/20 05:33:36;;;;;;;5.80;4.00;;;;;;;1.46;68.09;97484.73;109651;1251;59679;-62
2022/02/20 05:36:09;;;;;;;6.30;4.50;;;;;;;1.45;69.51;97489.06;109753;1251;71298;-64
2022/02/20 05:38:47;;;;;;;7.90;4.20;;;;;;;1.43;70.44;97486.05;109920;1250;68104;-63
2022/02/20 05:41:17;;;;;;;6.80;4.70;;;;;;;1.43;70.05;97489.48;109708;1251;68957;-62
2022/02/20 05:43:47;;;;;;;5.60;3.20;;;;;;;1.40;71.40;97486.31;109696;1251;59703;-63
2022/02/20 05:46:18;;;;;;;6.20;3.80;;;;;;;1.45;68.86;97485.13;109676;1251;59676;-63
2022/02/20 05:48:48;;;;;;;4.60;3.40;;;;;;;1.48;68.91;97488.27;109931;1250;71539;-63
2022/02/20 05:51:26;;;;;;;7.20;4.90;;;;;;;1.50;68.10;97484.23;109896;1251;68629;-64
2022/02/20 05:54:05;;;;;;;6.80;5.20;;;;;;;1.53;69.35;97488.09;109681;1250;68623;-66
2022/02/20 05:56:35;;;;;;;7.90;4.80;;;;;;;1.46;70.26;97493.69;109669;1250;59745;-64
2022/02/20 05:59:06;;;;;;;7.00;5.20;;;;;;;1.46;69.75;97494.17;109731;1250;59680;-64
2022/02/20 06:01:36;;;;;;;6.10;4.40;;;;;;;1.44;70.12;97489.28;109629;1251;71346;-65
2022/02/20 06:04:09;;;;;;;6.50;3.40;;;;;;;1.45;69.50;97489.73;109893;1250;68711;-66
2022/02/20 06:06:50;;;;;;;8.10;4.60;;;;;;;1.49;70.09;97494.27;109833;1250;68071;-64
2022/02/20 06:09:22;;;;;;;6.10;4.20;;;;;;;1.53;69.41;97494.25;109863;1250;59771;-63
2022/02/20 06:11:57;;;;;;;5.30;4.20;;;;;;;1.64;68.43;97493.73;109830;1250;59637;-63
2022/02/20 06:14:55;;;;;;;9.10;5.00;;;;;;;1.69;68.95;97499.03;109782;1250;72177;-63
2022/02/20 06:17:48;;;;;;;5.80;4.30;;;;;;;1.69;69.32;97503.68;109700;1250;67717;-65
2022/02/20 06:20:42;;;;;;;8.40;5.00;;;;;;;1.74;68.52;97507.79;109601;1251;68765;-62
2022/02/20 06:23:26;;;;;;;6.90;4.20;;;;;;;1.76;70.32;97509.11;109660;1251;59733;-61
2022/02/20 06:26:18;;;;;;;4.10;3.30;;;;;;;1.83;69.37;97516.08;109635;1251;59949;-65
2022/02/20 06:28:47;;;;;;;8.10;5.70;;;;;;;1.91;68.48;97517.83;109614;1250;71696;-63
2022/02/20 06:31:20;;;;;;;12.50;8.10;;;;;;;2.00;68.03;97519.02;109970;1250;67416;-61
2022/02/20 06:33:52;;;;;;;12.30;7.50;;;;;;;2.08;67.85;97523.41;109753;1251;69558;-61
2022/02/20 06:36:22;;;;;;;14.40;9.80;;;;;;;2.13;67.83;97519.61;109616;1251;59717;-62
2022/02/20 06:38:51;;;;;;;12.60;8.90;;;;;;;2.16;68.48;97521.05;109893;1250;59690;-64
2022/02/20 06:41:22;;;;;;;14.50;9.00;;;;;;;2.20;68.82;97519.02;109967;1251;72192;-64
2022/02/20 06:43:55;;;;;;;10.80;7.50;;;;;;;2.27;68.48;97516.33;110008;1250;67828;-63
2022/02/20 06:47:00;;;;;;;10.20;7.30;;;;;;;2.38;68.37;97517.63;109493;1254;69465;-62
2022/02/20 06:49:43;;;;;;;12.80;8.50;;;;;;;2.48;67.79;97520.16;109649;1250;59745;-62
2022/02/20 06:52:33;;;;;;;12.60;8.70;;;;;;;2.63;67.36;97531.83;109699;1250;59664;-62
2022/02/20 06:55:21;;;;;;;13.60;8.30;;;;;;;2.77;67.01;97534.50;109656;1251;71030;-62
2022/02/20 06:57:57;;;;;;;12.20;9.60;;;;;;;2.91;67.19;97530.36;109892;1251;67842;-62
2022/02/20 07:00:28;;;;;;;18.70;12.00;;;;;;;3.00;67.55;97527.56;109843;1251;68682;-63
2022/02/20 07:02:57;;;;;;;14.50;11.40;;;;;;;3.09;67.56;97527.73;109954;1250;59742;-61
2022/02/20 07:05:27;;;;;;;14.10;9.00;;;;;;;3.19;66.91;97530.23;109932;1250;60016;-60
2022/02/20 07:07:57;;;;;;;20.80;14.60;;;;;;;3.31;66.39;97526.61;109920;1250;72267;-61
2022/02/20 07:10:27;;;;;;;20.60;14.10;;;;;;;3.44;66.15;97521.79;109937;1250;68610;-63
2022/02/20 07:12:56;;;;;;;39.00;25.00;;;;;;;3.56;66.09;97518.52;109900;1251;68730;-64
2022/02/20 07:15:26;;;;;;;19.50;13.20;;;;;;;3.69;65.75;97526.06;109956;1250;59730;-63
2022/02/20 07:17:57;;;;;;;22.20;14.20;;;;;;;3.82;65.44;97524.27;109680;1250;59693;-64
2022/02/20 07:20:27;;;;;;;22.80;14.30;;;;;;;3.95;65.20;97522.50;109920;1250;70839;-61
2022/02/20 07:22:56;;;;;;;19.50;15.00;;;;;;;4.07;65.17;97521.61;109893;1250;68605;-63
2022/02/20 07:25:28;;;;;;;18.20;11.90;;;;;;;4.19;65.65;97526.44;109846;1250;69563;-63
2022/02/20 07:27:57;;;;;;;15.50;10.60;;;;;;;4.29;65.02;97521.98;109959;1250;59741;-64
2022/02/20 07:30:28;;;;;;;30.70;18.10;;;;;;;4.45;64.71;97526.59;109824;1250;59675;-64
2022/02/20 07:33:04;;;;;;;24.50;15.50;;;;;;;4.60;64.47;97525.39;109726;1250;72125;-63
2022/02/20 07:35:35;;;;;;;22.00;12.70;;;;;;;4.72;64.24;97525.85;109764;1250;67078;-64
2022/02/20 07:38:05;;;;;;;17.60;11.40;;;;;;;4.79;64.06;97529.13;109928;1250;68482;-63
2022/02/20 07:40:34;;;;;;;;;;;;;;;4.87;63.75;97523.60;109986;1250;60014;-65
2022/02/20 07:43:03;;;;;;;27.60;16.00;;;;;;;4.92;63.06;97522.83;109766;1250;59697;-59
2022/02/20 07:45:33;;;;;;;35.70;24.10;;;;;;;4.96;62.73;97524.70;109742;1251;72165;-63
2022/02/20 07:48:03;;;;;;;27.20;20.50;;;;;;;5.01;62.89;97529.48;110013;1250;68584;-64
2022/02/20 07:50:36;;;;;;;28.70;17.70;;;;;;;5.07;62.73;97528.48;109993;1249;69448;-62
2022/02/20 07:53:06;;;;;;;29.40;18.90;;;;;;;5.16;62.39;97531.85;109755;1251;59728;-64
2022/02/20 07:55:35;;;;;;;30.60;18.90;;;;;;;5.24;61.86;97530.28;110043;1250;59740;-63
2022/02/20 07:58:11;;;;;;;;;;;;;;;5.28;61.56;97530.72;109916;1250;70760;-63
2022/02/20 08:00:41;;;;;;;20.30;13.40;;;;;;;5.32;60.96;97527.60;109928;1250;67087;-63
2022/02/20 08:03:10;;;;;;;14.90;10.20;;;;;;;5.36;60.59;97524.98;109944;1249;69486;-63
2022/02/20 08:05:39;;;;;;;11.10;7.70;;;;;;;5.39;60.24;97515.33;109905;1250;59685;-63
2022/02/20 08:08:10;;;;;;;10.50;7.70;;;;;;;5.43;59.28;97510.64;109725;1251;59670;-63
2022/02/20 08:10:39;;;;;;;;;;;;;;;5.48;59.72;97512.66;109727;1250;72243;-63
2022/02/20 08:13:08;;;;;;;11.40;8.10;;;;;;;5.55;58.84;97519.19;109805;1251;68785;-61
2022/02/20 08:15:37;;;;;;;8.90;5.80;;;;;;;5.61;58.66;97522.31;109855;1250;69490;-64
2022/02/20 08:18:06;;;;;;;4.70;3.10;;;;;;;5.66;57.62;97518.80;109904;1250;59679;-63
2022/02/20 08:20:35;;;;;;;4.00;2.40;;;;;;;5.69;57.11;97523.02;109761;1250;59697;-61
2022/02/20 08:23:07;;;;;;;6.30;3.70;;;;;;;5.75;57.88;97527.33;109817;1251;70647;-63
2022/02/20 08:25:38;;;;;;;6.80;3.40;;;;;;;5.77;56.66;97522.04;109692;1250;67842;-64
2022/02/20 08:28:08;;;;;;;4.90;3.00;;;;;;;5.83;57.55;97520.14;109798;1251;69043;-64
2022/02/20 08:30:38;;;;;;;3.60;2.00;;;;;;;5.88;56.66;97519.91;109824;1251;59678;-64
2022/02/20 08:33:08;;;;;;;4.10;2.80;;;;;;;5.93;56.50;97522.98;109738;1251;59723;-64
2022/02/20 08:35:37;;;;;;;4.50;2.70;;;;;;;5.96;56.11;97524.88;109872;1251;71617;-63
2022/02/20 08:38:08;;;;;;;5.40;2.60;;;;;;;6.04;56.82;97522.05;109861;1251;68598;-64
2022/02/20 08:40:40;;;;;;;10.20;6.80;;;;;;;6.17;57.29;97524.11;109874;1251;69345;-64
2022/02/20 08:43:09;;;;;;;10.30;7.00;;;;;;;6.30;56.25;97526.91;109778;1250;59748;-63
2022/02/20 08:45:40;;;;;;;6.90;4.80;;;;;;;6.42;56.75;97523.12;109977;1250;59868;-65
2022/02/20 08:48:09;;;;;;;8.60;5.40;;;;;;;6.59;56.73;97516.11;109758;1251;70757;-63
2022/02/20 08:50:40;;;;;;;10.40;7.20;;;;;;;6.75;56.68;97511.78;109845;1250;67643;-63
2022/02/20 08:53:10;;;;;;;;;;;;;;;6.84;55.65;97511.77;109644;1251;68658;-64
2022/02/20 08:55:40;;;;;;;8.60;5.70;;;;;;;6.97;56.24;97514.54;109929;1250;59690;-63
2022/02/20 08:58:09;;;;;;;8.70;5.90;;;;;;;7.10;54.77;97512.54;109578;1251;59726;-64
2022/02/20 09:00:38;;;;;;;7.70;5.10;;;;;;;7.20;53.98;97510.44;109684;1251;71538;-63
2022/02/20 09:03:08;;;;;;;6.40;4.20;;;;;;;7.31;54.05;97508.27;109685;1251;68603;-65
2022/02/20 09:05:37;;;;;;;7.20;4.50;;;;;;;7.45;53.33;97509.73;109790;1251;69859;-63
2022/02/20 09:08:06;;;;;;;8.20;5.30;;;;;;;7.56;50.63;97510.05;109838;1250;59892;-63
2022/02/20 09:10:35;;;;;;;6.80;4.30;;;;;;;7.74;51.19;97514.21;109808;1251;59689;-62
2022/02/20 09:13:04;;;;;;;6.80;3.90;;;;;;;8.14;50.94;97514.93;109830;1250;71892;-65
2022/02/20 09:15:33;;;;;;;5.70;3.60;;;;;;;8.73;49.55;97516.98;109966;1250;67664;-63
2022/02/20 09:18:04;;;;;;;5.60;3.80;;;;;;;9.60;48.28;97513.86;110042;1250;68546;-63
2022/02/20 09:20:34;;;;;;;7.00;4.50;;;;;;;10.78;46.34;97516.71;109715;1251;59725;-65
2022/02/20 09:23:09;;;;;;;8.40;4.90;;;;;;;11.55;41.75;97503.23;109679;1251;59714;-64
2022/02/20 09:25:40;;;;;;;7.50;4.50;;;;;;;11.82;44.23;97500.46;109834;1251;72359;-63
2022/02/20 09:28:09;;;;;;;9.20;5.40;;;;;;;12.67;43.97;97495.24;109934;1250;68590;-64
2022/02/20 09:30:39;;;;;;;7.00;4.80;;;;;;;13.54;42.10;97492.98;109996;1250;69510;-65
2022/02/20 09:33:08;;;;;;;13.50;9.00;;;;;;;13.93;38.93;97496.23;109989;1250;59689;-64
2022/02/20 09:35:37;;;;;;;10.50;7.50;;;;;;;13.45;37.78;97493.41;109989;1249;59694;-66
2022/02/20 09:38:07;;;;;;;;;;;;;;;13.78;36.40;97491.05;109895;1250;71493;-64
2022/02/20 09:40:37;;;;;;;10.10;6.40;;;;;;;14.23;35.05;97484.92;110057;1249;68705;-66
2022/02/20 09:43:16;;;;;;;12.40;6.90;;;;;;;14.39;34.93;97487.72;109789;1250;68906;-63
2022/02/20 09:45:47;;;;;;;9.60;8.10;;;;;;;14.73;33.74;97482.61;109862;1250;59699;-64
2022/02/20 09:48:16;;;;;;;11.20;10.00;;;;;;;14.21;33.15;97474.70;109819;1251;59699;-64
2022/02/20 09:50:46;;;;;;;8.40;6.80;;;;;;;13.84;34.50;97465.66;109717;1250;70731;-66
2022/02/20 09:53:15;;;;;;;7.80;6.40;;;;;;;13.74;33.40;97463.35;110081;1250;67981;-64
2022/02/20 09:55:45;;;;;;;6.20;4.60;;;;;;;12.87;33.61;97460.16;109913;1250;68840;-64
2022/02/20 09:58:16;;;;;;;7.00;4.10;;;;;;;11.16;35.51;97457.93;109783;1250;59754;-63
2022/02/20 10:00:55;;;;;;;6.90;4.20;;;;;;;10.90;35.27;97461.77;109896;1250;59660;-64
2022/02/20 10:03:36;;;;;;;7.90;4.30;;;;;;;10.61;34.62;97467.70;110045;1250;71567;-63
2022/02/20 10:06:09;;;;;;;6.00;4.40;;;;;;;10.77;36.08;97473.18;109813;1251;69171;-65
2022/02/20 10:08:43;;;;;;;7.00;4.70;;;;;;;11.43;36.35;97477.52;109982;1250;69661;-64
2022/02/20 10:11:23;;;;;;;10.50;5.90;;;;;;;11.05;35.80;97474.64;109963;1249;59670;-63
2022/02/20 10:13:55;;;;;;;8.60;6.00;;;;;;;10.96;35.74;97467.27;109800;1250;59753;-62
2022/02/20 10:16:28;;;;;;;7.60;5.80;;;;;;;10.93;35.73;97468.92;109939;1250;71562;-62
2022/02/20 10:19:02;;;;;;;8.10;5.80;;;;;;;10.62;35.74;97458.21;109642;1251;68675;-61
2022/02/20 10:21:50;;;;;;;7.00;5.70;;;;;;;10.55;35.86;97462.61;109824;1248;69824;-62
2022/02/20 10:24:59;;;;;;;8.10;4.50;;;;;;;10.94;35.56;97456.91;109843;1250;60078;-63
2022/02/20 10:27:55;;;;;;;7.70;4.70;;;;;;;11.67;34.53;97458.46;109638;1250;59707;-65
2022/02/20 10:30:34;;;;;;;8.70;4.60;;;;;;;12.32;33.58;97454.83;109784;1250;70714;-64
2022/02/20 10:33:12;;;;;;;7.60;4.80;;;;;;;13.48;33.73;97454.10;109872;1249;67864;-64
2022/02/20 10:35:44;;;;;;;6.00;4.20;;;;;;;14.91;30.33;97455.59;109909;1250;69377;-64
2022/02/20 10:38:14;;;;;;;17.70;13.30;;;;;;;15.59;30.94;97450.27;109828;1250;59956;-63
2022/02/20 10:40:44;;;;;;;;;;;;;;;16.01;29.24;97451.98;109954;1249;59724;-66
2022/02/20 10:43:31;;;;;;;55.60;35.00;;;;;;;16.01;29.28;97453.20;109767;1250;70982;-63
2022/02/20 10:46:20;;;;;;;31.30;22.10;;;;;;;15.10;29.39;97447.54;109842;1251;67634;-64
2022/02/20 10:48:53;;;;;;;29.40;19.70;;;;;;;14.73;30.74;97445.83;109911;1250;69268;-65
2022/02/20 10:51:22;;;;;;;17.80;11.60;;;;;;;14.54;31.54;97448.45;109928;1250;59737;-64
2022/02/20 10:53:52;;;;;;;7.70;4.90;;;;;;;14.37;30.95;97446.74;109967;1250;59619;-66
2022/02/20 10:56:43;;;;;;;7.70;4.80;;;;;;;14.08;30.65;97448.35;109854;1250;72261;-65
2022/02/20 10:59:12;;;;;;;;;;;;;;;13.78;31.04;97442.12;109910;1250;68778;-66
2022/02/20 11:01:41;;;;;;;6.10;4.50;;;;;;;13.53;31.39;97442.72;109591;1251;67694;-64
2022/02/20 11:04:13;;;;;;;5.60;4.30;;;;;;;13.35;32.03;97436.70;109763;1250;59760;-63
2022/02/20 11:06:47;;;;;;;5.20;3.70;;;;;;;13.35;32.28;97434.60;109765;1251;59659;-64
2022/02/20 11:09:17;;;;;;;16.00;12.30;;;;;;;13.50;31.16;97431.09;109899;1250;71630;-64
2022/02/20 11:11:49;;;;;;;7.20;5.10;;;;;;;13.70;30.94;97435.30;109931;1250;69010;-65
2022/02/20 11:14:23;;;;;;;8.10;5.60;;;;;;;13.91;30.06;97430.70;109888;1250;69229;-65
2022/02/20 11:16:53;;;;;;;7.40;5.20;;;;;;;14.17;28.89;97426.54;109785;1251;59765;-63
2022/02/20 11:19:25;;;;;;;8.10;4.90;;;;;;;14.06;28.15;97425.89;109933;1250;60080;-64
2022/02/20 11:21:58;;;;;;;6.50;4.70;;;;;;;13.86;28.92;97418.67;109900;1250;71592;-65
2022/02/20 11:24:29;;;;;;;7.80;5.20;;;;;;;13.93;27.39;97414.60;109736;1250;67683;-64
2022/02/20 11:27:04;;;;;;;6.20;4.50;;;;;;;14.28;28.43;97414.55;109966;1250;69428;-65
2022/02/20 11:29:34;;;;;;;8.70;5.60;;;;;;;14.88;27.91;97411.31;109898;1250;59732;-64
2022/02/20 11:32:06;;;;;;;7.50;5.20;;;;;;;15.67;27.59;97409.83;109879;1250;59742;-66
2022/02/20 11:34:42;;;;;;;9.80;6.50;;;;;;;16.53;25.99;97405.52;109874;1250;72256;-64
2022/02/20 11:37:12;;;;;;;8.70;5.80;;;;;;;17.20;25.83;97403.34;109813;1250;68658;-65
2022/02/20 11:40:14;;;;;;;8.70;6.40;;;;;;;17.95;25.12;97405.77;109682;1251;69711;-65
2022/02/20 11:42:58;;;;;;;9.40;6.40;;;;;;;18.97;24.71;97397.59;109851;1249;59772;-64
2022/02/20 11:45:32;;;;;;;10.30;7.70;;;;;;;19.24;23.18;97396.45;110073;1249;59701;-64
2022/02/20 11:48:06;;;;;;;10.50;6.80;;;;;;;18.27;23.69;97397.02;109896;1248;70791;-64
2022/02/20 11:50:37;;;;;;;11.40;7.50;;;;;;;18.26;24.42;97393.06;109990;1250;67039;-65
2022/02/20 11:53:12;;;;;;;12.30;9.30;;;;;;;18.06;24.18;97382.95;110012;1249;68739;-64
2022/02/20 11:55:44;;;;;;;19.70;14.10;;;;;;;16.21;25.60;97372.81;109950;1248;59706;-66
2022/02/20 11:58:22;;;;;;;11.90;8.20;;;;;;;14.00;26.90;97374.18;109861;1250;59754;-64
2022/02/20 12:00:54;;;;;;;11.70;7.40;;;;;;;12.52;29.51;97363.40;109899;1250;70980;-65
2022/02/20 12:03:25;;;;;;;8.90;6.60;;;;;;;12.34;30.33;97359.80;109905;1250;68616;-63